createdAt,value
2022-11-20T00:01:30.391Z,47.16
2022-11-20T00:03:59.085Z,47.55
2022-11-20T00:06:28.064Z,47.29
2022-11-20T00:08:58.256Z,47.29
2022-11-20T00:11:27.758Z,47.20
2022-11-20T00:13:58.120Z,47.31
2022-11-20T00:16:27.331Z,47.07
2022-11-20T00:18:55.330Z,47.32
2022-11-20T00:21:25.269Z,47.15
2022-11-20T00:23:55.393Z,47.23
2022-11-20T00:26:26.269Z,47.32
2022-11-20T00:28:58.947Z,47.22
2022-11-20T00:31:26.904Z,47.04
2022-11-20T00:33:54.632Z,47.00
2022-11-20T00:36:24.628Z,46.93
2022-11-20T00:38:53.431Z,47.19
2022-11-20T00:41:21.522Z,47.14
2022-11-20T00:43:49.161Z,46.93
2022-11-20T00:46:19.095Z,47.04
2022-11-20T00:48:47.041Z,46.95
2022-11-20T00:51:17.196Z,46.90
2022-11-20T00:53:45.132Z,46.79
2022-11-20T00:56:15.208Z,46.86
2022-11-20T00:58:44.268Z,47.09
2022-11-20T01:01:17.858Z,46.74
2022-11-20T01:03:47.793Z,46.72
2022-11-20T01:06:18.291Z,46.76
2022-11-20T01:08:46.900Z,46.79
2022-11-20T01:11:17.695Z,46.52
2022-11-20T01:13:47.083Z,46.89
2022-11-20T01:16:15.948Z,46.61
2022-11-20T01:18:45.980Z,46.72
2022-11-20T01:21:19.768Z,46.71
2022-11-20T01:23:48.600Z,46.65
2022-11-20T01:26:22.451Z,46.61
2022-11-20T01:28:50.087Z,46.63
2022-11-20T01:31:23.899Z,46.61
2022-11-20T01:33:54.045Z,46.57
2022-11-20T01:36:23.603Z,46.42
2022-11-20T01:38:55.783Z,46.45
2022-11-20T01:41:43.352Z,46.50
2022-11-20T01:44:15.863Z,46.40
2022-11-20T01:47:00.148Z,46.43
2022-11-20T01:50:15.188Z,46.45
2022-11-20T01:52:51.851Z,46.36
2022-11-20T01:55:26.772Z,46.25
2022-11-20T01:57:54.443Z,46.26
2022-11-20T02:00:21.928Z,46.48
2022-11-20T02:02:54.663Z,46.27
2022-11-20T02:05:48.885Z,46.37
2022-11-20T02:08:17.032Z,46.31
2022-11-20T02:10:45.135Z,46.25
2022-11-20T02:13:31.284Z,46.26
2022-11-20T02:15:58.893Z,46.19
2022-11-20T02:18:27.105Z,46.19
2022-11-20T02:21:11.750Z,46.07
2022-11-20T02:23:45.859Z,46.20
2022-11-20T02:26:16.223Z,46.16
2022-11-20T02:28:43.793Z,46.11
2022-11-20T02:31:11.003Z,46.04
2022-11-20T02:33:38.593Z,46.15
2022-11-20T02:36:06.441Z,46.31
2022-11-20T02:38:34.034Z,45.98
2022-11-20T02:41:01.241Z,46.04
2022-11-20T02:43:28.764Z,46.02
2022-11-20T02:45:55.971Z,46.01
2022-11-20T02:48:25.307Z,45.89
2022-11-20T02:50:52.695Z,46.06
2022-11-20T02:53:20.457Z,45.80
2022-11-20T02:55:47.715Z,45.93
2022-11-20T02:58:15.247Z,45.89
2022-11-20T03:00:43.392Z,46.05
2022-11-20T03:03:11.023Z,45.76
2022-11-20T03:05:38.264Z,45.79
2022-11-20T03:08:05.847Z,45.87
2022-11-20T03:10:33.081Z,45.92
2022-11-20T03:13:00.679Z,45.92
2022-11-20T03:15:27.869Z,45.75
2022-11-20T03:17:56.414Z,45.76
2022-11-20T03:20:24.175Z,45.85
2022-11-20T03:22:51.889Z,45.63
2022-11-20T03:25:19.159Z,45.54
2022-11-20T03:27:46.634Z,45.60
2022-11-20T03:30:14.713Z,45.68
2022-11-20T03:32:42.607Z,45.70
2022-11-20T03:35:10.743Z,45.74
2022-11-20T03:37:38.300Z,45.62
2022-11-20T03:40:06.431Z,45.58
2022-11-20T03:42:46.044Z,45.43
2022-11-20T03:45:18.075Z,45.55
2022-11-20T03:47:46.591Z,45.53
2022-11-20T03:50:14.857Z,45.58
2022-11-20T03:52:42.965Z,45.47
2022-11-20T03:55:10.675Z,45.55
2022-11-20T03:57:38.640Z,45.63
2022-11-20T04:00:06.508Z,45.62
2022-11-20T04:02:34.104Z,45.53
2022-11-20T04:05:01.369Z,45.65
2022-11-20T04:07:28.993Z,45.42
2022-11-20T04:09:56.232Z,45.44
2022-11-20T04:12:23.800Z,45.51
2022-11-20T04:14:51.031Z,45.34
2022-11-20T04:17:18.586Z,45.40
2022-11-20T04:19:45.989Z,45.45
2022-11-20T04:22:13.575Z,45.47
2022-11-20T04:24:40.799Z,45.40
2022-11-20T04:27:08.584Z,45.36
2022-11-20T04:29:36.176Z,45.34
2022-11-20T04:32:03.724Z,45.46
2022-11-20T04:34:30.971Z,45.21
2022-11-20T04:36:58.606Z,45.39
2022-11-20T04:39:25.834Z,45.25
2022-11-20T04:42:13.795Z,45.31
2022-11-20T04:44:41.020Z,45.21
2022-11-20T04:47:08.548Z,45.28
2022-11-20T04:49:36.089Z,45.33
2022-11-20T04:52:03.684Z,45.25
2022-11-20T04:54:30.951Z,45.22
2022-11-20T04:56:58.641Z,45.05
2022-11-20T04:59:25.908Z,45.17
2022-11-20T05:01:53.653Z,45.05
2022-11-20T05:04:21.193Z,45.13
2022-11-20T05:06:50.113Z,45.14
2022-11-20T05:09:17.347Z,45.17
2022-11-20T05:11:47.088Z,45.21
2022-11-20T05:14:17.656Z,45.25
2022-11-20T05:16:45.362Z,44.95
2022-11-20T05:19:12.857Z,45.13
2022-11-20T05:21:40.540Z,45.06
2022-11-20T05:24:07.974Z,45.09
2022-11-20T05:26:35.616Z,44.98
2022-11-20T05:29:03.013Z,45.02
2022-11-20T05:31:30.684Z,45.08
2022-11-20T05:33:58.399Z,44.86
2022-11-20T05:36:26.340Z,44.78
2022-11-20T05:38:58.071Z,44.95
2022-11-20T05:41:27.563Z,45.04
2022-11-20T05:43:54.785Z,45.00
2022-11-20T05:46:28.621Z,44.90
2022-11-20T05:48:58.152Z,44.98
2022-11-20T05:51:27.008Z,44.71
2022-11-20T05:53:54.435Z,44.72
2022-11-20T05:56:22.703Z,45.02
2022-11-20T05:58:50.506Z,44.75
2022-11-20T06:01:22.493Z,44.67
2022-11-20T06:03:51.404Z,44.83
2022-11-20T06:06:19.981Z,44.66
2022-11-20T06:08:47.764Z,44.76
2022-11-20T06:11:16.618Z,44.70
2022-11-20T06:13:44.463Z,44.74
2022-11-20T06:16:14.260Z,44.78
2022-11-20T06:18:41.824Z,44.77
2022-11-20T06:21:15.748Z,44.51
2022-11-20T06:23:43.368Z,44.59
2022-11-20T06:26:20.236Z,44.70
2022-11-20T06:28:47.859Z,44.59
2022-11-20T06:31:17.971Z,44.38
2022-11-20T06:33:45.529Z,44.40
2022-11-20T06:36:14.831Z,44.65
2022-11-20T06:38:42.669Z,44.41
2022-11-20T06:41:15.941Z,44.57
2022-11-20T06:43:43.346Z,44.39
2022-11-20T06:46:12.609Z,44.50
2022-11-20T06:48:40.835Z,44.55
2022-11-20T06:51:09.550Z,44.35
2022-11-20T06:53:37.839Z,44.07
2022-11-20T06:56:06.768Z,44.34
2022-11-20T06:58:35.608Z,44.34
2022-11-20T07:01:08.640Z,44.40
2022-11-20T07:03:36.152Z,44.21
2022-11-20T07:06:04.582Z,44.34
2022-11-20T07:08:32.919Z,44.14
2022-11-20T07:11:02.373Z,44.16
2022-11-20T07:13:30.431Z,44.19
2022-11-20T07:16:03.604Z,44.02
2022-11-20T07:18:31.194Z,44.04
2022-11-20T07:21:07.867Z,43.99
2022-11-20T07:23:35.455Z,43.89
2022-11-20T07:26:10.904Z,44.06
2022-11-20T07:28:38.044Z,43.88
2022-11-20T07:31:07.735Z,43.90
2022-11-20T07:33:35.206Z,44.02
2022-11-20T07:36:03.042Z,43.85
2022-11-20T07:38:30.315Z,44.08
2022-11-20T07:40:58.979Z,44.13
2022-11-20T07:43:26.345Z,44.05
2022-11-20T07:45:59.361Z,44.11
2022-11-20T07:48:26.815Z,44.22
2022-11-20T07:50:57.874Z,44.39
2022-11-20T07:53:25.404Z,44.20
2022-11-20T07:55:53.411Z,44.23
2022-11-20T07:58:21.603Z,44.36
2022-11-20T08:00:49.274Z,44.30
2022-11-20T08:03:23.195Z,44.41
2022-11-20T08:05:52.775Z,44.25
2022-11-20T08:08:22.019Z,44.50
2022-11-20T08:10:49.643Z,44.24
2022-11-20T08:13:35.331Z,44.44
2022-11-20T08:16:03.070Z,44.26
2022-11-20T08:18:32.193Z,44.51
2022-11-20T08:21:05.021Z,44.34
2022-11-20T08:23:34.361Z,44.42
2022-11-20T08:26:01.999Z,44.37
2022-11-20T08:28:29.411Z,44.47
2022-11-20T08:31:01.817Z,44.36
2022-11-20T08:33:30.833Z,44.20
2022-11-20T08:36:03.683Z,44.51
2022-11-20T08:38:32.076Z,44.25
2022-11-20T08:41:20.486Z,44.42
2022-11-20T08:43:48.121Z,44.46
2022-11-20T08:46:15.735Z,44.40
2022-11-20T08:48:43.109Z,44.40
2022-11-20T08:51:12.351Z,44.47
2022-11-20T08:53:40.561Z,44.38
2022-11-20T08:56:08.709Z,44.64
2022-11-20T08:59:01.917Z,44.56
2022-11-20T09:01:24.538Z,44.75
2022-11-20T09:03:52.007Z,44.75
2022-11-20T09:06:19.666Z,44.91
2022-11-20T09:08:46.886Z,44.87
2022-11-20T09:11:14.461Z,44.98
2022-11-20T09:13:41.753Z,44.87
2022-11-20T09:16:09.900Z,44.91
2022-11-20T09:18:38.280Z,45.23
2022-11-20T09:21:14.700Z,44.97
2022-11-20T09:23:42.004Z,44.90
2022-11-20T09:26:14.732Z,44.60
2022-11-20T09:28:42.281Z,44.75
2022-11-20T09:31:17.909Z,44.91
2022-11-20T09:33:45.268Z,46.02
2022-11-20T09:36:13.675Z,45.65
2022-11-20T09:38:40.980Z,45.90
2022-11-20T09:41:29.294Z,46.41
2022-11-20T09:44:05.797Z,46.49
2022-11-20T09:46:47.939Z,45.92
2022-11-20T09:49:32.651Z,45.86
2022-11-20T09:52:22.912Z,46.42
2022-11-20T09:54:51.419Z,46.27
2022-11-20T09:57:24.295Z,46.54
2022-11-20T09:59:57.168Z,46.18
2022-11-20T10:02:25.099Z,45.93
2022-11-20T10:05:09.585Z,46.00
2022-11-20T10:08:10.728Z,45.78
2022-11-20T10:10:50.792Z,45.68
2022-11-20T10:13:39.421Z,45.78
2022-11-20T10:16:15.830Z,45.98
2022-11-20T10:19:03.316Z,45.82
2022-11-20T10:21:53.762Z,46.11
2022-11-20T10:24:28.342Z,46.14
2022-11-20T10:27:34.155Z,46.51
2022-11-20T10:30:12.241Z,46.38
2022-11-20T10:32:42.390Z,46.36
2022-11-20T10:35:35.267Z,46.54
2022-11-20T10:38:46.940Z,46.63
2022-11-20T10:41:26.908Z,46.32
2022-11-20T10:44:36.581Z,46.33
2022-11-20T10:47:15.390Z,46.58
2022-11-20T10:49:46.569Z,46.47
2022-11-20T10:52:39.336Z,46.56
2022-11-20T10:55:13.117Z,46.48
2022-11-20T10:58:07.947Z,46.84
2022-11-20T11:00:35.268Z,46.62
2022-11-20T11:03:04.002Z,46.76
2022-11-20T11:05:41.150Z,46.65
2022-11-20T11:08:15.932Z,46.72
2022-11-20T11:10:46.046Z,46.78
2022-11-20T11:13:26.046Z,46.87
2022-11-20T11:15:54.141Z,46.93
2022-11-20T11:18:31.009Z,47.37
2022-11-20T11:21:02.056Z,47.01
2022-11-20T11:23:37.233Z,46.93
2022-11-20T11:26:07.912Z,46.86
2022-11-20T11:28:35.716Z,46.71
2022-11-20T11:31:02.998Z,46.64
2022-11-20T11:33:34.670Z,46.68
2022-11-20T11:36:05.215Z,46.72
2022-11-20T11:38:39.552Z,46.80
2022-11-20T11:41:13.756Z,46.81
2022-11-20T11:44:11.123Z,47.01
2022-11-20T11:46:40.328Z,46.80
2022-11-20T11:49:16.124Z,46.95
2022-11-20T11:51:51.296Z,47.21
2022-11-20T11:54:25.178Z,47.19
2022-11-20T11:56:53.980Z,47.54
2022-11-20T11:59:46.740Z,47.68
2022-11-20T12:02:30.467Z,47.75
2022-11-20T12:05:14.461Z,47.83
2022-11-20T12:08:05.931Z,48.00
2022-11-20T12:10:54.930Z,47.97
2022-11-20T12:13:59.168Z,48.02
2022-11-20T12:16:26.756Z,47.89
2022-11-20T12:18:54.140Z,47.93
2022-11-20T12:21:25.012Z,47.83
2022-11-20T12:23:52.276Z,47.90
2022-11-20T12:26:43.078Z,47.85
2022-11-20T12:29:28.570Z,48.07
2022-11-20T12:32:16.081Z,48.01
2022-11-20T12:34:56.257Z,48.09
2022-11-20T12:37:29.725Z,48.05
2022-11-20T12:40:13.030Z,48.07
2022-11-20T12:43:20.887Z,48.02
2022-11-20T12:46:32.606Z,47.90
2022-11-20T12:49:25.014Z,47.86
2022-11-20T12:52:13.672Z,47.72
2022-11-20T12:54:59.157Z,47.50
2022-11-20T12:57:35.464Z,47.38
2022-11-20T13:00:14.780Z,47.30
2022-11-20T13:03:01.129Z,47.19
2022-11-20T13:05:44.205Z,47.27
2022-11-20T13:08:39.929Z,47.09
2022-11-20T13:11:10.404Z,47.13
2022-11-20T13:13:52.664Z,47.02
2022-11-20T13:16:35.160Z,46.91
2022-11-20T13:19:04.792Z,46.99
2022-11-20T13:21:44.841Z,46.93
2022-11-20T13:24:28.679Z,46.98
2022-11-20T13:27:14.764Z,46.77
2022-11-20T13:29:45.880Z,46.90
2022-11-20T13:32:21.305Z,46.75
2022-11-20T13:34:57.700Z,46.76
2022-11-20T13:37:29.819Z,46.71
2022-11-20T13:40:09.241Z,46.75
2022-11-20T13:42:40.741Z,46.74
2022-11-20T13:45:32.273Z,46.91
2022-11-20T13:48:05.804Z,47.02
2022-11-20T13:50:47.386Z,46.98
2022-11-20T13:53:31.669Z,47.00
2022-11-20T13:56:11.778Z,47.12
2022-11-20T13:59:09.618Z,47.16
2022-11-20T14:01:40.457Z,47.50
2022-11-20T14:04:16.537Z,47.25
2022-11-20T14:06:46.776Z,47.16
2022-11-20T14:09:27.696Z,47.28
2022-11-20T14:11:55.948Z,47.16
2022-11-20T14:14:26.256Z,47.13
2022-11-20T14:17:06.904Z,47.06
2022-11-20T14:19:35.170Z,47.22
2022-11-20T14:22:19.968Z,46.99
2022-11-20T14:25:19.287Z,47.10
2022-11-20T14:27:56.214Z,47.11
2022-11-20T14:30:27.419Z,47.13
2022-11-20T14:33:01.176Z,46.97
2022-11-20T14:35:32.408Z,46.79
2022-11-20T14:38:01.372Z,46.99
2022-11-20T14:40:36.611Z,46.85
2022-11-20T14:43:17.776Z,47.00
2022-11-20T14:45:49.882Z,46.78
2022-11-20T14:48:17.348Z,47.01
2022-11-20T14:50:46.131Z,46.89
2022-11-20T14:53:23.828Z,47.06
2022-11-20T14:56:00.620Z,46.92
2022-11-20T14:58:34.379Z,46.80
2022-11-20T15:01:05.470Z,46.54
2022-11-20T15:03:41.483Z,47.06
2022-11-20T15:06:12.932Z,46.97
2022-11-20T15:08:51.938Z,46.58
2022-11-20T15:11:24.073Z,46.75
2022-11-20T15:13:51.893Z,46.56
2022-11-20T15:16:21.909Z,46.62
2022-11-20T15:18:49.334Z,46.68
2022-11-20T15:21:22.074Z,46.94
2022-11-20T15:23:49.790Z,46.76
2022-11-20T15:26:27.218Z,46.80
2022-11-20T15:28:54.769Z,46.81
2022-11-20T15:31:24.325Z,46.83
2022-11-20T15:33:51.974Z,46.56
2022-11-20T15:36:19.585Z,46.85
2022-11-20T15:38:47.137Z,47.35
2022-11-20T15:41:14.787Z,47.53
2022-11-20T15:43:42.120Z,47.38
2022-11-20T15:46:16.231Z,47.47
2022-11-20T15:48:50.346Z,47.46
2022-11-20T15:51:32.583Z,47.24
2022-11-20T15:54:00.348Z,47.30
2022-11-20T15:56:27.960Z,47.27
2022-11-20T15:58:55.598Z,47.29
2022-11-20T16:01:23.544Z,47.26
2022-11-20T16:03:50.864Z,47.18
2022-11-20T16:06:18.440Z,47.10
2022-11-20T16:08:45.751Z,47.20
2022-11-20T16:11:15.434Z,47.10
2022-11-20T16:14:01.250Z,47.05
2022-11-20T16:16:40.146Z,47.11
2022-11-20T16:19:10.556Z,46.97
2022-11-20T16:21:38.515Z,46.79
2022-11-20T16:24:07.191Z,46.79
2022-11-20T16:26:35.757Z,46.90
2022-11-20T16:29:06.095Z,46.94
2022-11-20T16:31:34.061Z,46.90
2022-11-20T16:34:10.199Z,47.17
2022-11-20T16:36:42.133Z,46.90
2022-11-20T16:39:09.387Z,46.90
2022-11-20T16:41:37.331Z,47.08
2022-11-20T16:44:10.212Z,46.91
2022-11-20T16:46:38.838Z,47.01
2022-11-20T16:49:13.824Z,46.92
2022-11-20T16:51:41.794Z,47.29
2022-11-20T16:54:10.138Z,47.32
2022-11-20T16:56:39.134Z,47.50
2022-11-20T16:59:07.432Z,47.59
2022-11-20T17:01:38.616Z,47.71
2022-11-20T17:04:07.230Z,47.58
2022-11-20T17:06:40.841Z,47.60
2022-11-20T17:09:10.934Z,47.45
2022-11-20T17:11:38.861Z,47.50
2022-11-20T17:14:08.993Z,47.31
2022-11-20T17:16:37.844Z,47.34
2022-11-20T17:19:05.417Z,47.23
2022-11-20T17:21:36.278Z,47.31
2022-11-20T17:24:09.147Z,47.36
2022-11-20T17:26:38.969Z,47.34
2022-11-20T17:29:10.035Z,47.41
2022-11-20T17:31:38.641Z,47.39
2022-11-20T17:34:08.117Z,47.31
2022-11-20T17:36:39.546Z,47.33
2022-11-20T17:39:09.451Z,47.42
2022-11-20T17:41:37.114Z,47.19
2022-11-20T17:44:04.435Z,47.19
2022-11-20T17:46:35.093Z,47.05
2022-11-20T17:49:02.808Z,46.98
2022-11-20T17:51:32.558Z,47.20
2022-11-20T17:54:02.297Z,47.17
2022-11-20T17:56:53.278Z,47.32
2022-11-20T17:59:21.618Z,47.36
2022-11-20T18:01:49.476Z,47.30
2022-11-20T18:04:17.404Z,47.35
2022-11-20T18:06:44.984Z,47.36
2022-11-20T18:09:12.839Z,47.30
2022-11-20T18:11:42.266Z,47.40
2022-11-20T18:14:32.759Z,47.34
2022-11-20T18:17:08.905Z,47.28
2022-11-20T18:19:44.958Z,47.45
2022-11-20T18:22:20.142Z,47.35
2022-11-20T18:24:47.748Z,47.38
2022-11-20T18:27:19.289Z,47.46
2022-11-20T18:29:52.210Z,47.22
2022-11-20T18:32:22.014Z,47.33
2022-11-20T18:34:50.430Z,47.26
2022-11-20T18:37:18.175Z,47.29
2022-11-20T18:39:45.582Z,47.13
2022-11-20T18:42:34.351Z,47.10
2022-11-20T18:45:04.256Z,46.87
2022-11-20T18:47:36.605Z,46.90
2022-11-20T18:50:06.452Z,46.85
2022-11-20T18:52:38.802Z,46.82
2022-11-20T18:55:07.302Z,46.87
2022-11-20T18:57:35.700Z,46.90
2022-11-20T19:00:08.864Z,46.76
2022-11-20T19:02:42.307Z,46.66
2022-11-20T19:05:12.490Z,46.71
2022-11-20T19:07:40.671Z,46.69
2022-11-20T19:10:09.468Z,46.70
2022-11-20T19:12:37.114Z,46.84
2022-11-20T19:15:04.702Z,46.77
2022-11-20T19:17:33.601Z,47.01
2022-11-20T19:20:01.036Z,47.22
2022-11-20T19:22:29.654Z,47.41
2022-11-20T19:24:57.087Z,47.52
2022-11-20T19:27:24.717Z,47.66
2022-11-20T19:29:52.022Z,47.68
2022-11-20T19:32:19.744Z,47.58
2022-11-20T19:34:47.170Z,47.62
2022-11-20T19:37:14.852Z,47.63
2022-11-20T19:39:42.136Z,47.65
2022-11-20T19:42:09.780Z,47.71
2022-11-20T19:44:37.057Z,47.68
2022-11-20T19:47:08.914Z,47.76
2022-11-20T19:49:41.744Z,47.79
2022-11-20T19:52:09.592Z,47.70
2022-11-20T19:54:37.052Z,47.79
2022-11-20T19:57:04.761Z,47.67
2022-11-20T19:59:35.634Z,47.66
2022-11-20T20:02:03.909Z,47.86
2022-11-20T20:04:31.403Z,47.73
2022-11-20T20:06:59.252Z,47.82
2022-11-20T20:09:27.667Z,47.72
2022-11-20T20:11:55.359Z,47.68
2022-11-20T20:14:22.651Z,47.71
2022-11-20T20:16:50.234Z,47.67
2022-11-20T20:19:17.861Z,47.71
2022-11-20T20:21:47.691Z,47.97
2022-11-20T20:24:15.005Z,47.69
2022-11-20T20:26:42.666Z,47.85
2022-11-20T20:29:09.977Z,47.60
2022-11-20T20:31:37.603Z,47.81
2022-11-20T20:34:05.966Z,47.59
2022-11-20T20:36:33.691Z,47.76
2022-11-20T20:39:02.729Z,47.67
2022-11-20T20:41:30.951Z,47.76
2022-11-20T20:44:16.772Z,47.58
2022-11-20T20:46:44.407Z,47.50
2022-11-20T20:49:12.149Z,47.69
2022-11-20T20:51:39.766Z,47.78
2022-11-20T20:54:07.414Z,47.58
2022-11-20T20:56:35.242Z,47.41
2022-11-20T20:59:03.803Z,47.80
2022-11-20T21:01:31.557Z,47.57
2022-11-20T21:03:59.008Z,47.50
2022-11-20T21:06:26.804Z,47.63
2022-11-20T21:08:55.927Z,47.47
2022-11-20T21:11:23.540Z,47.68
2022-11-20T21:13:50.961Z,47.62
2022-11-20T21:16:21.040Z,47.64
2022-11-20T21:18:49.038Z,47.64
2022-11-20T21:21:36.210Z,47.40
2022-11-20T21:24:04.149Z,47.48
2022-11-20T21:26:31.693Z,47.68
2022-11-20T21:28:59.052Z,47.67
2022-11-20T21:31:27.301Z,47.56
2022-11-20T21:33:56.129Z,47.34
2022-11-20T21:36:28.956Z,47.41
2022-11-20T21:38:57.540Z,47.46
2022-11-20T21:41:27.627Z,47.54
2022-11-20T21:44:29.176Z,47.57
2022-11-20T21:46:45.164Z,47.26
2022-11-20T21:49:13.031Z,47.58
2022-11-20T21:51:40.802Z,47.44
2022-11-20T21:54:10.738Z,47.35
2022-11-20T21:56:38.362Z,47.41
2022-11-20T21:59:05.754Z,47.50
2022-11-20T22:01:33.586Z,47.44
2022-11-20T22:04:02.388Z,47.40
2022-11-20T22:06:32.589Z,47.60
2022-11-20T22:09:01.032Z,47.43
2022-11-20T22:11:29.091Z,47.47
2022-11-20T22:14:14.974Z,47.11
2022-11-20T22:16:42.804Z,47.23
2022-11-20T22:19:10.161Z,47.36
2022-11-20T22:21:39.536Z,47.26
2022-11-20T22:24:07.313Z,47.34
2022-11-20T22:26:40.130Z,47.14
2022-11-20T22:29:12.088Z,46.83
2022-11-20T22:31:40.164Z,46.83
2022-11-20T22:34:14.326Z,46.26
2022-11-20T22:36:42.176Z,46.36
2022-11-20T22:39:09.710Z,46.54
2022-11-20T22:41:37.342Z,46.33
2022-11-20T22:44:06.998Z,46.53
2022-11-20T22:46:36.495Z,46.41
2022-11-20T22:49:06.529Z,46.04
2022-11-20T22:51:37.796Z,46.25
2022-11-20T22:54:05.781Z,46.38
2022-11-20T22:56:34.379Z,46.20
2022-11-20T22:59:01.643Z,46.02
2022-11-20T23:01:34.466Z,46.12
2022-11-20T23:04:07.043Z,46.04
2022-11-20T23:06:34.720Z,45.77
2022-11-20T23:09:04.171Z,45.78
2022-11-20T23:11:32.707Z,45.84
2022-11-20T23:14:02.730Z,45.99
2022-11-20T23:16:31.367Z,45.74
2022-11-20T23:19:01.212Z,45.82
2022-11-20T23:21:29.148Z,45.87
2022-11-20T23:23:57.974Z,45.67
2022-11-20T23:26:28.408Z,45.84
2022-11-20T23:28:57.672Z,45.60
2022-11-20T23:31:26.919Z,45.63
2022-11-20T23:33:54.552Z,45.80
2022-11-20T23:36:22.189Z,45.64
2022-11-20T23:38:49.466Z,45.56
2022-11-20T23:41:17.172Z,45.78
2022-11-20T23:43:44.414Z,45.83
2022-11-20T23:46:16.218Z,45.76
2022-11-20T23:48:44.877Z,45.57
2022-11-20T23:51:13.328Z,45.59
2022-11-20T23:53:41.434Z,45.50
2022-11-20T23:56:09.085Z,45.69
2022-11-20T23:58:37.655Z,45.92
